Time;durP1;ratioP1;P1;durP2;ratioP2;P2;SDS_P1;SDS_P2;PMS_P1;PMS_P2;Temp;Humidity;BMP_temperature;BMP_pressure;BME280_temperature;BME280_humidity;BME280_pressure;Samples;Min_cycle;Max_cycle;Signal;HPM_P1;HPM_P2
2022/04/28 00:00:00;;;;;;;7.93;2.40;;;15.10;57.80;;;;;;4181383;28;20044;-65
2022/04/28 00:02:23;;;;;;;9.70;2.63;;;15.10;57.80;;;;;;4198931;28;20045;-64
2022/04/28 00:04:46;;;;;;;5.18;2.30;;;15.20;58.00;;;;;;4188142;28;20109;-64
2022/04/28 00:07:13;;;;;;;10.57;2.80;;;15.10;57.90;;;;;;4179602;28;20044;-64
2022/04/28 00:09:37;;;;;;;7.38;2.22;;;15.10;57.80;;;;;;4179533;28;20072;-63
2022/04/28 00:12:03;;;;;;;5.07;2.50;;;15.20;57.90;;;;;;4184042;28;20114;-63
2022/04/28 00:14:26;;;;;;;7.70;2.40;;;15.20;57.90;;;;;;4181674;28;20068;-63
2022/04/28 00:16:49;;;;;;;5.32;2.50;;;15.20;57.90;;;;;;4188420;28;20123;-64
2022/04/28 00:19:15;;;;;;;10.27;3.28;;;15.20;58.00;;;;;;4186856;28;20044;-64
2022/04/28 00:21:38;;;;;;;9.30;2.80;;;15.20;57.90;;;;;;4188118;28;20044;-65
2022/04/28 00:24:01;;;;;;;5.57;2.65;;;15.10;57.90;;;;;;4179440;28;20472;-65
2022/04/28 00:26:24;;;;;;;13.23;3.15;;;15.10;57.60;;;;;;4173912;28;20148;-65
2022/04/28 00:28:50;;;;;;;7.60;2.90;;;15.10;57.50;;;;;;4193459;28;20044;-65
2022/04/28 00:31:13;;;;;;;5.35;2.80;;;15.20;57.60;;;;;;4188474;28;20135;-65
2022/04/28 00:33:40;;;;;;;7.80;2.97;;;15.10;57.60;;;;;;4180764;28;20435;-65
2022/04/28 00:36:05;;;;;;;5.40;2.50;;;15.10;57.70;;;;;;4184744;28;20454;-65
2022/04/28 00:38:31;;;;;;;7.82;2.85;;;15.10;57.90;;;;;;4186620;28;20045;-64
2022/04/28 00:40:54;;;;;;;6.50;2.85;;;15.10;57.90;;;;;;4188401;28;20044;-64
2022/04/28 00:43:28;;;;;;;9.95;2.70;;;15.10;58.10;;;;;;4191911;28;20059;-65
2022/04/28 00:45:52;;;;;;;6.63;2.70;;;15.10;58.10;;;;;;4186335;28;20449;-65
2022/04/28 00:51:00;;;;;;;5.10;2.47;;;15.10;58.10;;;;;;4186203;28;20087;-65
2022/04/28 00:53:23;;;;;;;8.18;2.60;;;15.10;58.40;;;;;;4187577;28;20378;-65
2022/04/28 00:55:52;;;;;;;8.18;2.70;;;15.10;58.00;;;;;;4187210;28;20114;-65
2022/04/28 00:58:21;;;;;;;6.65;2.53;;;15.10;58.10;;;;;;4186127;28;20074;-64
2022/04/28 01:00:44;;;;;;;10.43;2.80;;;15.10;58.30;;;;;;4186802;28;20098;-64
2022/04/28 01:03:17;;;;;;;14.48;3.22;;;15.10;58.40;;;;;;4182918;28;20048;-64
2022/04/28 01:05:41;;;;;;;5.35;2.53;;;15.10;58.50;;;;;;4186567;28;20049;-64
2022/04/28 01:08:05;;;;;;;8.65;2.65;;;15.10;58.50;;;;;;4186136;28;20055;-64
2022/04/28 01:10:30;;;;;;;7.15;2.70;;;15.10;58.60;;;;;;4169144;28;20506;-64
2022/04/28 01:12:56;;;;;;;4.82;2.83;;;15.10;58.60;;;;;;4169285;28;20045;-65
2022/04/28 01:15:19;;;;;;;8.48;3.15;;;15.10;58.70;;;;;;4186523;28;20127;-65
2022/04/28 01:17:42;;;;;;;5.65;2.80;;;15.10;58.70;;;;;;4187127;28;20169;-64
2022/04/28 01:20:08;;;;;;;8.60;2.63;;;15.10;58.80;;;;;;4186638;28;20048;-64
2022/04/28 01:22:33;;;;;;;4.80;2.45;;;15.10;58.80;;;;;;4165548;28;20049;-64
2022/04/28 01:25:04;;;;;;;10.07;3.17;;;15.10;58.80;;;;;;4185809;28;20040;-65
2022/04/28 01:27:31;;;;;;;7.50;3.08;;;15.10;59.60;;;;;;4171613;28;20064;-65
2022/04/28 01:29:58;;;;;;;8.30;3.40;;;15.10;58.90;;;;;;4180261;28;20090;-65
2022/04/28 01:32:27;;;;;;;10.43;3.08;;;15.10;59.00;;;;;;4186109;28;20040;-65
2022/04/28 01:34:51;;;;;;;8.68;2.83;;;15.10;59.00;;;;;;4187121;28;20044;-62
2022/04/28 01:37:17;;;;;;;9.88;2.75;;;15.10;59.10;;;;;;4187243;28;20395;-63
2022/04/28 01:39:42;;;;;;;10.25;2.88;;;15.10;59.20;;;;;;4187363;28;20151;-65
2022/04/28 01:42:06;;;;;;;12.45;3.00;;;15.10;59.20;;;;;;4203340;28;20044;-65
2022/04/28 01:44:32;;;;;;;7.10;2.50;;;15.10;59.20;;;;;;4173762;28;20058;-64
2022/04/28 01:46:57;;;;;;;7.03;2.72;;;15.10;59.30;;;;;;4177248;28;20139;-65
2022/04/28 01:49:49;;;;;;;8.98;3.08;;;15.10;59.30;;;;;;4173087;28;20060;-65
2022/04/28 01:55:55;;;;;;;6.32;2.60;;;15.10;59.50;;;;;;4174118;28;20092;-64
2022/04/28 01:59:03;;;;;;;7.22;3.33;;;15.10;59.50;;;;;;4166300;28;20056;-64
2022/04/28 02:02:04;;;;;;;5.82;2.22;;;15.10;59.40;;;;;;4183252;28;20041;-64
2022/04/28 02:04:27;;;;;;;6.43;2.30;;;15.10;59.50;;;;;;4177388;28;20059;-64
2022/04/28 02:06:50;;;;;;;5.63;2.30;;;15.10;59.40;;;;;;4175078;28;20051;-64
2022/04/28 02:09:15;;;;;;;7.30;2.83;;;15.10;59.50;;;;;;4173443;28;20049;-64
2022/04/28 02:11:39;;;;;;;11.63;2.85;;;15.00;59.40;;;;;;4164094;28;20049;-64
2022/04/28 02:14:34;;;;;;;6.30;2.28;;;15.00;59.50;;;;;;4167361;28;20056;-64
2022/04/28 02:17:18;;;;;;;6.63;2.75;;;15.00;59.60;;;;;;4173770;28;20138;-64
2022/04/28 02:19:44;;;;;;;7.30;2.70;;;15.00;59.60;;;;;;4194493;28;20126;-64
2022/04/28 02:22:06;;;;;;;10.35;3.13;;;15.00;59.60;;;;;;4187158;28;20048;-64
2022/04/28 02:24:33;;;;;;;6.90;3.28;;;15.00;59.60;;;;;;4188449;28;20107;-65
2022/04/28 02:26:58;;;;;;;6.38;2.63;;;15.00;59.60;;;;;;4188919;28;20444;-65
2022/04/28 02:29:25;;;;;;;7.07;2.90;;;15.00;59.60;;;;;;4188349;28;20087;-65
2022/04/28 02:31:48;;;;;;;7.28;2.65;;;15.00;59.60;;;;;;4187348;28;20052;-65
2022/04/28 02:34:14;;;;;;;5.38;2.65;;;15.00;59.80;;;;;;4178926;28;20045;-64
2022/04/28 02:36:42;;;;;;;5.22;2.67;;;15.00;59.80;;;;;;4179861;28;20064;-65
2022/04/28 02:39:06;;;;;;;12.73;2.67;;;15.00;59.90;;;;;;4180217;28;20040;-64
2022/04/28 02:41:32;;;;;;;4.18;2.40;;;15.00;59.90;;;;;;4175216;28;20124;-64
2022/04/28 02:44:01;;;;;;;8.43;2.78;;;15.00;59.90;;;;;;4174018;28;20583;-63
2022/04/28 02:46:24;;;;;;;5.18;2.30;;;15.00;59.90;;;;;;4196355;28;20059;-63
2022/04/28 02:48:55;;;;;;;5.60;2.75;;;15.00;59.90;;;;;;4170972;28;20040;-65
2022/04/28 02:51:19;;;;;;;8.73;2.80;;;15.00;60.00;;;;;;4181343;28;20136;-64
2022/04/28 02:53:42;;;;;;;6.38;2.80;;;15.00;60.00;;;;;;4177217;28;20576;-64
2022/04/28 02:56:06;;;;;;;5.18;2.40;;;15.00;60.00;;;;;;4188663;28;20040;-64
2022/04/28 02:58:30;;;;;;;4.93;2.75;;;15.00;60.00;;;;;;4172945;28;20094;-64
2022/04/28 03:00:56;;;;;;;5.15;2.58;;;15.00;60.10;;;;;;4191527;28;20056;-64
2022/04/28 03:03:20;;;;;;;6.45;3.15;;;15.00;60.10;;;;;;4187484;28;20048;-64
2022/04/28 03:11:07;;;;;;;6.90;2.60;;;15.00;60.40;;;;;;4190649;28;20053;-64
2022/04/28 03:13:32;;;;;;;7.97;2.70;;;15.00;60.40;;;;;;4178724;28;20082;-65
2022/04/28 03:15:57;;;;;;;10.98;2.45;;;15.00;60.50;;;;;;4201457;28;20144;-64
2022/04/28 03:18:49;;;;;;;8.07;2.42;;;15.00;60.40;;;;;;4170097;28;20154;-65
2022/04/28 03:21:13;;;;;;;3.42;2.08;;;15.00;60.50;;;;;;4182170;28;20117;-65
2022/04/28 03:23:39;;;;;;;5.72;2.53;;;15.00;60.50;;;;;;4179426;28;20110;-64
2022/04/28 03:26:07;;;;;;;7.45;2.70;;;15.00;60.50;;;;;;4180467;28;20057;-64
2022/04/28 03:28:36;;;;;;;4.85;2.45;;;14.90;60.40;;;;;;4191972;28;20737;-64
2022/04/28 03:31:04;;;;;;;5.40;2.25;;;15.00;60.50;;;;;;4168606;28;20557;-64
2022/04/28 03:33:49;;;;;;;6.50;2.72;;;15.00;60.50;;;;;;4153349;28;20518;-64
2022/04/28 03:38:55;;;;;;;11.57;2.67;;;15.00;60.60;;;;;;4186787;28;20054;-64
2022/04/28 03:41:18;;;;;;;6.22;2.55;;;15.00;60.70;;;;;;4188553;28;20507;-64
2022/04/28 03:43:41;;;;;;;7.20;2.53;;;14.90;60.70;;;;;;4188948;28;20070;-64
2022/04/28 03:46:14;;;;;;;7.95;2.80;;;14.90;60.60;;;;;;4187399;28;20059;-64
2022/04/28 03:48:40;;;;;;;6.03;2.55;;;15.00;60.70;;;;;;4179297;28;20133;-64
2022/04/28 03:51:04;;;;;;;6.78;2.90;;;14.90;60.70;;;;;;4171430;28;20064;-64
2022/04/28 03:53:33;;;;;;;6.32;2.58;;;15.00;60.80;;;;;;4190284;28;20059;-64
2022/04/28 03:56:05;;;;;;;7.28;2.58;;;14.90;60.90;;;;;;4188373;28;20472;-65
2022/04/28 03:58:28;;;;;;;;;;;15.00;60.90;;;;;;4174156;28;20709;-65
2022/04/28 04:00:52;;;;;;;8.63;2.60;;;15.00;60.90;;;;;;4174752;28;20363;-64
2022/04/28 04:03:31;;;;;;;7.70;2.33;;;15.00;61.20;;;;;;4182110;28;20076;-64
2022/04/28 04:05:57;;;;;;;6.30;2.53;;;14.90;61.00;;;;;;4187300;28;20063;-64
2022/04/28 04:08:21;;;;;;;6.45;2.90;;;14.90;61.10;;;;;;4186565;28;20129;-65
2022/04/28 04:11:08;;;;;;;4.80;2.55;;;14.90;61.10;;;;;;4150196;28;20071;-65
2022/04/28 04:13:32;;;;;;;6.85;2.65;;;14.90;61.10;;;;;;4166231;28;20041;-65
2022/04/28 04:15:59;;;;;;;11.30;3.08;;;14.90;61.20;;;;;;4166715;28;20578;-65
2022/04/28 04:18:25;;;;;;;5.22;2.67;;;14.90;61.10;;;;;;4165413;28;20048;-66
2022/04/28 04:20:55;;;;;;;5.88;2.67;;;14.90;61.10;;;;;;4188187;28;20049;-64
2022/04/28 04:23:18;;;;;;;9.10;2.78;;;14.90;61.10;;;;;;4191979;28;20118;-64
2022/04/28 04:25:48;;;;;;;8.35;3.20;;;14.90;61.10;;;;;;4187001;28;20052;-65
2022/04/28 04:28:17;;;;;;;5.95;3.05;;;14.90;61.10;;;;;;4180165;28;20064;-65
2022/04/28 04:33:55;;;;;;;7.72;2.78;;;14.90;61.20;;;;;;4152423;28;20471;-65
2022/04/28 04:36:22;;;;;;;4.85;2.97;;;14.90;61.10;;;;;;4180027;28;20135;-65
2022/04/28 04:38:46;;;;;;;6.80;3.08;;;14.90;61.10;;;;;;4188081;28;20514;-65
2022/04/28 04:41:12;;;;;;;6.38;3.60;;;14.90;61.10;;;;;;4186986;28;20059;-65
2022/04/28 04:43:36;;;;;;;8.90;3.75;;;14.90;61.20;;;;;;4184715;28;20491;-65
2022/04/28 04:45:59;;;;;;;9.23;3.92;;;14.90;61.20;;;;;;4185096;28;20047;-66
2022/04/28 04:48:54;;;;;;;6.07;3.17;;;14.90;61.20;;;;;;4180243;28;20186;-65
2022/04/28 04:51:45;;;;;;;10.32;3.80;;;14.90;61.10;;;;;;4189487;28;20051;-65
2022/04/28 04:54:16;;;;;;;7.97;3.60;;;14.90;61.10;;;;;;4172681;28;20041;-64
2022/04/28 04:56:44;;;;;;;10.38;3.90;;;14.90;60.90;;;;;;4186219;28;20047;-65
2022/04/28 04:59:08;;;;;;;6.82;3.67;;;14.90;61.00;;;;;;4186792;28;20063;-64
2022/04/28 05:01:33;;;;;;;10.45;4.00;;;14.90;61.10;;;;;;4187495;28;20056;-64
2022/04/28 05:04:15;;;;;;;13.20;4.53;;;14.90;61.00;;;;;;4184874;28;20063;-66
2022/04/28 05:07:09;;;;;;;5.40;3.55;;;14.80;61.10;;;;;;4142696;28;20050;-64
2022/04/28 05:09:37;;;;;;;8.10;4.05;;;14.80;61.00;;;;;;4179316;28;20056;-65
2022/04/28 05:12:03;;;;;;;8.52;3.78;;;14.80;61.00;;;;;;4180038;28;20056;-64
2022/04/28 05:14:48;;;;;;;9.82;3.10;;;14.80;61.10;;;;;;4187629;28;20076;-65
2022/04/28 05:17:12;;;;;;;8.93;3.33;;;14.80;61.40;;;;;;4189561;28;20059;-64
2022/04/28 05:20:03;;;;;;;;;;;14.80;61.30;;;;;;4189698;28;20044;-65
2022/04/28 05:23:02;;;;;;;8.25;2.88;;;14.80;61.30;;;;;;4192306;28;19920;-66
2022/04/28 05:25:47;;;;;;;10.00;3.53;;;14.80;61.60;;;;;;4182760;28;20392;-65
2022/04/28 05:28:31;;;;;;;10.85;3.03;;;14.80;61.40;;;;;;4191428;28;20082;-63
2022/04/28 05:31:12;;;;;;;;;;;14.80;61.60;;;;;;4176694;28;20053;-63
2022/04/28 05:33:53;;;;;;;14.30;2.70;;;14.80;61.50;;;;;;4178591;28;19924;-63
2022/04/28 05:36:28;;;;;;;9.75;2.85;;;14.80;61.50;;;;;;4174687;28;20057;-64
2022/04/28 05:38:52;;;;;;;10.90;2.80;;;14.90;62.10;;;;;;4170847;28;20513;-63
2022/04/28 05:41:15;;;;;;;6.50;2.40;;;14.90;61.50;;;;;;4189348;28;20095;-66
2022/04/28 05:46:23;;;;;;;;;;;15.00;60.50;;;;;;4188751;28;20033;-63
2022/04/28 05:48:48;;;;;;;12.63;3.05;;;15.00;60.40;;;;;;4186869;28;19955;-65
2022/04/28 05:51:11;;;;;;;11.18;3.05;;;14.90;60.50;;;;;;4204406;28;20089;-63
2022/04/28 05:53:34;;;;;;;6.65;2.55;;;14.90;60.80;;;;;;4174794;28;20041;-64
2022/04/28 05:56:01;;;;;;;9.45;2.40;;;14.90;60.90;;;;;;4175083;28;20049;-65
2022/04/28 05:58:35;;;;;;;8.43;2.30;;;14.90;60.90;;;;;;4176105;28;20095;-64
2022/04/28 06:01:27;;;;;;;8.75;2.60;;;14.90;60.70;;;;;;4198645;28;20056;-64
2022/04/28 06:03:52;;;;;;;7.70;2.60;;;14.80;61.20;;;;;;4192452;28;20044;-66
2022/04/28 06:06:16;;;;;;;8.25;2.15;;;14.80;61.10;;;;;;4178219;28;20049;-65
2022/04/28 06:08:41;;;;;;;12.55;2.90;;;14.80;61.00;;;;;;4206330;28;20437;-65
2022/04/28 06:11:05;;;;;;;7.00;2.55;;;14.80;61.00;;;;;;4176929;28;20041;-64
2022/04/28 06:13:28;;;;;;;5.97;1.95;;;14.80;61.00;;;;;;4176163;28;20091;-64
2022/04/28 06:16:09;;;;;;;8.05;2.55;;;14.80;61.10;;;;;;4185287;28;20696;-65
2022/04/28 06:18:42;;;;;;;8.02;1.90;;;14.80;61.10;;;;;;4189409;28;20048;-64
2022/04/28 06:21:35;;;;;;;10.10;2.58;;;14.80;61.20;;;;;;4191625;28;20529;-64
2022/04/28 06:24:01;;;;;;;8.07;2.38;;;14.80;61.20;;;;;;4189006;28;20503;-65
2022/04/28 06:26:25;;;;;;;6.80;2.20;;;14.70;61.30;;;;;;4180888;28;20084;-64
2022/04/28 06:28:52;;;;;;;8.60;3.15;;;14.80;61.40;;;;;;4190627;28;20055;-65
2022/04/28 06:31:16;;;;;;;8.02;2.33;;;14.70;61.30;;;;;;4191290;28;20398;-64
2022/04/28 06:33:45;;;;;;;7.10;1.92;;;14.70;61.30;;;;;;4190094;28;20048;-63
2022/04/28 06:36:17;;;;;;;5.68;2.20;;;14.70;61.50;;;;;;4189313;28;20044;-64
2022/04/28 06:38:42;;;;;;;7.85;2.20;;;14.80;61.70;;;;;;4182665;28;20048;-65
2022/04/28 06:41:06;;;;;;;8.95;2.75;;;14.80;61.50;;;;;;4191738;28;20048;-66
2022/04/28 06:43:33;;;;;;;9.35;2.20;;;14.80;61.40;;;;;;4190119;28;20133;-66
2022/04/28 06:46:18;;;;;;;10.43;2.40;;;14.80;61.30;;;;;;4168173;28;20060;-65
2022/04/28 06:48:56;;;;;;;5.45;1.83;;;14.80;61.20;;;;;;4188159;28;20044;-66
2022/04/28 06:51:41;;;;;;;6.15;1.85;;;14.80;61.30;;;;;;4189699;28;20044;-66
2022/04/28 06:54:12;;;;;;;6.10;2.60;;;14.70;61.30;;;;;;4173589;28;20055;-66
2022/04/28 06:56:37;;;;;;;8.35;2.30;;;14.70;61.10;;;;;;4191634;28;20125;-66
2022/04/28 06:59:03;;;;;;;10.13;2.45;;;14.80;62.10;;;;;;4187971;28;20139;-66
2022/04/28 07:01:26;;;;;;;4.43;1.80;;;14.80;61.30;;;;;;4188062;28;20053;-66
2022/04/28 07:03:53;;;;;;;4.00;1.50;;;14.80;61.20;;;;;;4188570;28;20064;-66
2022/04/28 07:06:18;;;;;;;10.00;1.67;;;14.90;60.80;;;;;;4202791;28;20453;-65
2022/04/28 07:08:43;;;;;;;5.90;1.88;;;15.00;59.60;;;;;;4189921;28;22251;-66
2022/04/28 07:11:05;;;;;;;10.68;2.03;;;15.00;58.80;;;;;;4201632;28;20047;-65
2022/04/28 07:13:29;;;;;;;6.88;2.40;;;15.00;58.80;;;;;;4174743;28;20622;-65
2022/04/28 07:16:04;;;;;;;7.55;1.92;;;15.00;58.60;;;;;;4188326;28;20072;-66
2022/04/28 07:18:46;;;;;;;5.75;1.63;;;15.00;59.00;;;;;;4181343;28;20071;-66
2022/04/28 07:21:09;;;;;;;7.65;2.03;;;15.00;58.90;;;;;;4180211;28;20526;-65
2022/04/28 07:23:32;;;;;;;9.32;2.05;;;15.00;58.80;;;;;;4198979;28;20056;-65
2022/04/28 07:25:55;;;;;;;5.85;2.15;;;14.90;58.90;;;;;;4186208;28;20063;-66
2022/04/28 07:28:18;;;;;;;8.68;2.30;;;15.00;58.80;;;;;;4189941;28;20135;-65
2022/04/28 07:30:55;;;;;;;4.20;1.67;;;14.90;58.90;;;;;;4187368;28;20056;-65
2022/04/28 07:33:37;;;;;;;9.53;1.70;;;14.90;59.10;;;;;;4189997;28;20056;-65
2022/04/28 07:36:18;;;;;;;8.00;2.45;;;14.90;59.20;;;;;;4187729;28;21079;-65
2022/04/28 07:38:59;;;;;;;6.72;2.08;;;14.90;58.90;;;;;;4186382;28;20056;-66
2022/04/28 07:41:30;;;;;;;10.30;2.17;;;14.80;58.70;;;;;;4186689;28;20060;-65
2022/04/28 07:43:53;;;;;;;5.65;1.90;;;14.90;58.70;;;;;;4187502;28;20063;-66
2022/04/28 07:46:15;;;;;;;10.25;1.67;;;14.90;58.80;;;;;;4187333;28;20408;-67
2022/04/28 07:48:41;;;;;;;7.03;1.80;;;14.80;58.60;;;;;;4187636;28;20045;-65
2022/04/28 07:51:04;;;;;;;5.75;1.63;;;14.90;58.40;;;;;;4187166;28;20061;-66
2022/04/28 07:53:26;;;;;;;9.45;2.03;;;14.80;58.30;;;;;;4186455;28;20479;-65
2022/04/28 07:56:10;;;;;;;5.15;1.42;;;14.90;58.70;;;;;;4173784;28;20055;-66
2022/04/28 07:58:31;;;;;;;7.82;2.00;;;14.90;59.00;;;;;;4189309;28;20109;-64
2022/04/28 08:01:17;;;;;;;8.05;1.65;;;15.00;59.20;;;;;;4186705;28;20167;-66
2022/04/28 08:03:41;;;;;;;11.30;2.10;;;15.00;58.70;;;;;;4187364;28;20055;-66
2022/04/28 08:06:03;;;;;;;9.52;2.08;;;15.00;58.60;;;;;;4172492;28;20922;-71
2022/04/28 08:08:26;;;;;;;8.80;2.00;;;15.00;58.40;;;;;;4187482;28;20521;-73
2022/04/28 08:10:49;;;;;;;6.97;2.03;;;15.00;58.40;;;;;;4173614;28;20051;-76
2022/04/28 08:13:14;;;;;;;6.38;2.08;;;15.00;58.60;;;;;;4173023;28;21178;-64
2022/04/28 08:15:57;;;;;;;8.13;1.80;;;15.00;59.00;;;;;;4188860;28;20067;-74
2022/04/28 08:18:29;;;;;;;7.47;2.33;;;15.00;59.20;;;;;;4187902;28;20057;-71
2022/04/28 08:20:52;;;;;;;9.25;2.70;;;15.00;58.70;;;;;;4173271;28;20059;-64
2022/04/28 08:23:15;;;;;;;8.95;2.40;;;15.00;58.20;;;;;;4187482;28;20177;-65
2022/04/28 08:25:37;;;;;;;7.45;2.22;;;15.00;58.30;;;;;;4188349;28;20060;-65
2022/04/28 08:28:00;;;;;;;13.18;2.17;;;15.00;58.30;;;;;;4180155;28;20048;-65
2022/04/28 08:30:25;;;;;;;9.95;2.47;;;15.00;58.00;;;;;;4187207;28;20052;-65
2022/04/28 08:32:49;;;;;;;6.45;2.42;;;15.00;57.80;;;;;;4186535;28;20052;-65
2022/04/28 08:35:11;;;;;;;8.20;3.10;;;15.00;57.50;;;;;;4187270;28;20076;-65
2022/04/28 08:37:36;;;;;;;14.27;2.28;;;15.00;57.60;;;;;;4187336;28;20139;-65
2022/04/28 08:39:59;;;;;;;10.82;2.97;;;15.00;57.80;;;;;;4187135;28;20056;-66
2022/04/28 08:42:23;;;;;;;7.18;2.90;;;15.00;58.00;;;;;;4201184;28;20069;-66
2022/04/28 08:44:56;;;;;;;8.68;3.25;;;15.00;58.10;;;;;;4172640;28;20053;-65
2022/04/28 08:47:39;;;;;;;13.68;3.33;;;15.00;58.20;;;;;;4186490;28;20052;-65
2022/04/28 08:50:40;;;;;;;5.57;2.28;;;15.00;58.40;;;;;;4177317;28;20047;-65
2022/04/28 08:53:08;;;;;;;10.15;3.05;;;15.10;58.40;;;;;;4190461;28;20049;-66
2022/04/28 08:55:34;;;;;;;9.13;3.30;;;15.10;58.30;;;;;;4191794;28;20171;-65
2022/04/28 08:57:58;;;;;;;11.68;3.53;;;15.10;58.50;;;;;;4191273;28;20094;-65
2022/04/28 09:00:23;;;;;;;9.73;3.08;;;15.10;58.30;;;;;;4175666;28;20552;-65
2022/04/28 09:03:14;;;;;;;10.27;3.30;;;15.10;58.50;;;;;;4189459;28;20054;-65
2022/04/28 09:06:19;;;;;;;13.07;4.03;;;15.10;58.70;;;;;;4191254;28;20799;-65
2022/04/28 09:09:07;;;;;;;17.77;4.00;;;15.10;58.50;;;;;;4164846;28;20049;-65
2022/04/28 09:11:57;;;;;;;15.55;4.07;;;15.10;58.70;;;;;;4169806;28;20048;-65
2022/04/28 09:14:46;;;;;;;8.63;3.38;;;15.20;59.20;;;;;;4175729;28;20135;-65
2022/04/28 09:17:13;;;;;;;11.63;3.22;;;15.20;59.10;;;;;;4170034;28;20059;-65
2022/04/28 09:19:38;;;;;;;10.60;3.63;;;15.20;59.10;;;;;;4174034;28;20041;-65
2022/04/28 09:22:14;;;;;;;9.85;2.72;;;15.30;59.00;;;;;;4186014;28;20491;-65
2022/04/28 09:24:44;;;;;;;11.55;3.03;;;15.30;58.90;;;;;;4202775;28;20055;-66
2022/04/28 09:27:14;;;;;;;11.88;2.65;;;15.30;58.60;;;;;;4188645;28;20048;-65
2022/04/28 09:29:39;;;;;;;13.88;2.60;;;15.30;58.50;;;;;;4202561;28;20103;-65
2022/04/28 09:32:06;;;;;;;10.93;3.08;;;15.40;58.50;;;;;;4189170;28;20045;-66
2022/04/28 09:35:06;;;;;;;15.68;2.53;;;15.30;58.20;;;;;;4190658;28;20049;-66
2022/04/28 09:37:49;;;;;;;12.00;2.47;;;15.30;58.40;;;;;;4191345;28;20051;-66
2022/04/28 09:42:57;;;;;;;8.52;2.92;;;15.30;58.60;;;;;;4190890;28;20059;-65
2022/04/28 09:45:32;;;;;;;11.70;2.65;;;15.30;58.40;;;;;;4188868;28;20376;-66
2022/04/28 09:48:04;;;;;;;8.63;2.35;;;15.30;58.40;;;;;;4189792;28;20049;-66
2022/04/28 09:50:38;;;;;;;9.98;2.63;;;15.40;58.30;;;;;;4189186;28;20052;-66
2022/04/28 09:53:24;;;;;;;10.27;3.08;;;15.30;58.40;;;;;;4167673;28;20049;-65
2022/04/28 09:56:25;;;;;;;18.10;2.92;;;15.30;58.40;;;;;;4174421;28;20052;-66
2022/04/28 09:58:52;;;;;;;4.60;1.95;;;15.30;58.50;;;;;;4172499;28;20049;-65
2022/04/28 10:01:14;;;;;;;9.88;2.40;;;15.30;58.70;;;;;;4172830;28;20520;-64
2022/04/28 10:03:40;;;;;;;9.30;2.97;;;15.30;58.80;;;;;;4157869;28;20064;-65
2022/04/28 10:06:07;;;;;;;5.03;1.92;;;15.30;58.50;;;;;;4180354;28;20155;-64
2022/04/28 10:09:09;;;;;;;10.50;2.50;;;15.30;58.30;;;;;;4171776;28;20751;-64
2022/04/28 10:11:34;;;;;;;12.40;2.63;;;15.30;58.30;;;;;;4170002;28;20085;-64
2022/04/28 10:14:01;;;;;;;10.20;2.45;;;15.30;58.30;;;;;;4170845;28;20073;-65
2022/04/28 10:16:25;;;;;;;9.20;2.42;;;15.30;58.30;;;;;;4171933;28;20082;-64
2022/04/28 10:18:51;;;;;;;11.68;2.65;;;15.30;58.20;;;;;;4172791;28;20482;-65
2022/04/28 10:21:20;;;;;;;13.27;2.72;;;15.30;58.20;;;;;;4171942;28;20136;-64
2022/04/28 10:32:24;;;;;;;14.13;2.85;;;15.40;58.10;;;;;;4174838;28;20118;-65
2022/04/28 10:35:02;;;;;;;8.20;1.83;;;15.40;58.50;;;;;;4174017;28;20049;-66
2022/04/28 10:37:31;;;;;;;8.45;2.78;;;15.40;58.80;;;;;;4188933;28;20068;-65
2022/04/28 10:39:56;;;;;;;13.80;2.50;;;15.40;58.30;;;;;;4188559;28;20048;-65
2022/04/28 10:43:00;;;;;;;8.48;2.10;;;15.40;58.20;;;;;;4188597;28;20442;-65
2022/04/28 10:45:24;;;;;;;5.80;1.60;;;15.40;58.00;;;;;;4189768;28;20374;-65
2022/04/28 10:48:21;;;;;;;8.27;1.98;;;15.50;58.40;;;;;;4201784;28;20503;-65
2022/04/28 10:51:00;;;;;;;8.85;2.40;;;15.50;58.50;;;;;;4190795;28;20545;-64
2022/04/28 10:53:22;;;;;;;12.07;2.42;;;15.50;58.10;;;;;;4189175;28;20045;-65
2022/04/28 10:55:49;;;;;;;12.48;2.28;;;15.60;58.10;;;;;;4188448;28;20048;-65
2022/04/28 10:58:24;;;;;;;9.07;2.55;;;15.60;58.10;;;;;;4189628;28;20421;-65
2022/04/28 11:00:52;;;;;;;10.23;2.78;;;15.50;57.60;;;;;;4190339;28;20048;-64
2022/04/28 11:03:16;;;;;;;22.52;3.28;;;15.60;57.60;;;;;;4190662;28;20147;-65
2022/04/28 11:05:42;;;;;;;10.35;2.75;;;15.60;57.60;;;;;;4176426;28;20052;-64
2022/04/28 11:08:05;;;;;;;9.82;2.92;;;15.60;57.30;;;;;;4178789;28;20055;-64
2022/04/28 11:10:31;;;;;;;10.82;2.47;;;15.60;57.40;;;;;;4175715;28;20091;-64
2022/04/28 11:12:55;;;;;;;10.93;3.15;;;15.70;57.50;;;;;;4175507;28;20045;-65
2022/04/28 11:15:20;;;;;;;7.93;2.95;;;15.60;58.00;;;;;;4190555;28;20056;-64
2022/04/28 11:17:44;;;;;;;11.00;2.95;;;15.70;57.60;;;;;;4192390;28;20072;-65
2022/04/28 11:20:11;;;;;;;14.73;3.15;;;15.70;57.80;;;;;;4191103;28;20052;-65
2022/04/28 11:22:43;;;;;;;9.15;2.92;;;15.70;58.00;;;;;;4190597;28;20561;-66
2022/04/28 11:25:10;;;;;;;9.13;2.38;;;15.70;58.20;;;;;;4176696;28;20055;-66
2022/04/28 11:27:35;;;;;;;7.57;2.40;;;15.70;57.90;;;;;;4190340;28;20078;-65
2022/04/28 11:30:04;;;;;;;11.75;2.30;;;15.70;58.20;;;;;;4191035;28;20060;-65
2022/04/28 11:32:28;;;;;;;8.73;2.15;;;15.80;57.80;;;;;;4185616;28;20056;-65
2022/04/28 11:34:52;;;;;;;8.27;2.38;;;15.80;57.50;;;;;;4181089;28;20050;-65
2022/04/28 11:37:15;;;;;;;10.70;2.10;;;15.80;57.20;;;;;;4180462;28;20112;-65
2022/04/28 11:39:37;;;;;;;8.73;2.67;;;15.70;57.30;;;;;;4175452;28;20037;-64
2022/04/28 11:42:00;;;;;;;7.00;2.38;;;15.70;57.80;;;;;;4176493;28;20053;-65
2022/04/28 11:44:23;;;;;;;8.68;2.45;;;15.80;57.70;;;;;;4176143;28;20044;-64
2022/04/28 11:46:49;;;;;;;9.70;3.17;;;15.80;57.50;;;;;;4177923;28;20136;-66
2022/04/28 11:49:13;;;;;;;11.68;3.00;;;15.80;56.90;;;;;;4190932;28;20048;-66
2022/04/28 11:51:36;;;;;;;6.50;2.53;;;15.80;57.00;;;;;;4177401;28;20052;-66
2022/04/28 11:53:59;;;;;;;8.25;2.40;;;15.80;56.70;;;;;;4185128;28;20047;-65
2022/04/28 11:56:25;;;;;;;9.48;2.47;;;15.80;56.80;;;;;;4174398;28;20060;-65
2022/04/28 11:58:50;;;;;;;8.05;2.50;;;15.80;57.00;;;;;;4175591;28;20053;-65
2022/04/28 12:01:12;;;;;;;10.07;2.55;;;15.80;57.00;;;;;;4173915;28;20441;-65
2022/04/28 12:03:35;;;;;;;7.20;2.63;;;15.80;56.90;;;;;;4172465;28;20053;-66
2022/04/28 12:05:59;;;;;;;7.20;2.58;;;15.90;56.90;;;;;;4174457;28;20131;-66
2022/04/28 12:08:22;;;;;;;8.95;2.50;;;15.90;56.60;;;;;;4174883;28;20336;-66
2022/04/28 12:16:06;;;;;;;9.02;2.35;;;15.90;56.90;;;;;;4175399;28;20488;-66
2022/04/28 12:21:18;;;;;;;10.65;2.80;;;15.90;56.50;;;;;;4175157;28;20045;-66
2022/04/28 12:23:42;;;;;;;5.15;2.22;;;15.90;56.70;;;;;;4157571;28;20045;-67
2022/04/28 12:26:06;;;;;;;8.45;2.72;;;15.90;56.50;;;;;;4157853;28;20128;-66
2022/04/28 12:28:33;;;;;;;9.15;2.67;;;15.90;56.60;;;;;;4158559;28;20053;-66
2022/04/28 12:30:56;;;;;;;6.68;2.75;;;15.90;57.10;;;;;;4160550;28;20133;-66
2022/04/28 12:33:23;;;;;;;12.85;3.17;;;15.90;56.50;;;;;;4158266;28;20084;-66
2022/04/28 12:35:47;;;;;;;8.30;2.47;;;15.90;56.50;;;;;;4170507;28;20053;-65
2022/04/28 12:38:12;;;;;;;4.65;2.20;;;15.90;56.80;;;;;;4157323;28;20123;-65
2022/04/28 12:40:39;;;;;;;11.65;2.72;;;15.90;56.50;;;;;;4160931;28;20127;-65
2022/04/28 12:43:02;;;;;;;9.88;3.38;;;15.90;56.50;;;;;;4169545;28;20438;-66
2022/04/28 12:45:40;;;;;;;10.25;2.80;;;15.90;56.30;;;;;;4148958;28;20057;-65
2022/04/28 12:48:02;;;;;;;10.73;2.45;;;15.90;56.20;;;;;;4186973;28;20411;-65
2022/04/28 12:50:25;;;;;;;9.25;2.88;;;15.90;56.00;;;;;;4187090;28;20126;-65
2022/04/28 12:52:48;;;;;;;14.90;3.28;;;15.90;56.20;;;;;;4190267;28;20041;-66
2022/04/28 12:55:12;;;;;;;13.02;2.70;;;16.00;56.10;;;;;;4185463;28;20037;-65
2022/04/28 12:57:35;;;;;;;9.95;2.55;;;16.00;55.70;;;;;;4190930;28;21295;-65
2022/04/28 13:00:01;;;;;;;10.65;3.10;;;16.00;56.30;;;;;;4191351;28;20105;-65
2022/04/28 13:02:30;;;;;;;11.70;3.58;;;16.00;56.30;;;;;;4186268;28;20049;-66
2022/04/28 13:04:53;;;;;;;8.50;3.03;;;16.00;56.20;;;;;;4186565;28;20048;-65
2022/04/28 13:07:15;;;;;;;7.53;2.30;;;16.00;56.30;;;;;;4174809;28;20045;-65
2022/04/28 13:09:37;;;;;;;10.02;2.42;;;16.00;56.40;;;;;;4173705;28;20043;-65
2022/04/28 13:12:01;;;;;;;8.38;2.20;;;16.00;56.50;;;;;;4174579;28;20056;-65
2022/04/28 13:14:24;;;;;;;9.50;2.35;;;16.00;56.10;;;;;;4172864;28;20049;-66
2022/04/28 13:16:47;;;;;;;6.25;1.85;;;16.10;56.40;;;;;;4178018;28;20372;-66
2022/04/28 13:19:11;;;;;;;9.73;2.60;;;16.10;56.40;;;;;;4176301;28;20655;-66
2022/04/28 13:21:34;;;;;;;7.10;2.20;;;16.10;56.40;;;;;;4174495;28;20048;-66
2022/04/28 13:23:56;;;;;;;7.68;2.13;;;16.10;56.40;;;;;;4174284;28;20049;-66
2022/04/28 13:26:21;;;;;;;7.05;2.50;;;16.10;56.40;;;;;;4176142;28;20053;-66
2022/04/28 13:28:45;;;;;;;6.47;2.20;;;16.10;56.70;;;;;;4177177;28;20059;-66
2022/04/28 13:31:08;;;;;;;7.65;2.72;;;16.10;56.70;;;;;;4173396;28;20621;-66
2022/04/28 13:33:30;;;;;;;9.82;2.42;;;16.20;56.50;;;;;;4162903;28;20045;-66